createdAt,value
2018-08-24T00:02:06.572Z,22.90
2018-08-24T00:04:36.109Z,23.00
2018-08-24T00:07:05.730Z,22.98
2018-08-24T00:09:35.223Z,23.09
2018-08-24T00:12:05.287Z,23.11
2018-08-24T00:14:35.772Z,23.07
2018-08-24T00:17:09.350Z,23.10
2018-08-24T00:19:39.029Z,23.13
2018-08-24T00:22:08.958Z,23.23
2018-08-24T00:24:38.414Z,23.23
2018-08-24T00:27:08.201Z,23.29
2018-08-24T00:29:37.803Z,23.34
2018-08-24T00:32:08.261Z,23.25
2018-08-24T00:34:38.337Z,23.18
2018-08-24T00:37:08.163Z,23.16
2018-08-24T00:39:41.293Z,23.05
2018-08-24T00:42:12.095Z,22.88
2018-08-24T00:44:42.331Z,22.81
2018-08-24T00:47:12.332Z,22.83
2018-08-24T00:49:42.056Z,22.76
2018-08-24T00:52:11.565Z,22.74
2018-08-24T00:54:41.015Z,22.73
2018-08-24T00:57:10.386Z,22.71
2018-08-24T00:59:39.850Z,22.66
2018-08-24T01:02:09.439Z,22.67
2018-08-24T01:04:39.161Z,22.58
2018-08-24T01:07:11.426Z,22.47
2018-08-24T01:09:41.382Z,22.41
2018-08-24T01:12:12.630Z,22.38
2018-08-24T01:14:43.699Z,22.43
2018-08-24T01:17:18.484Z,22.43
2018-08-24T01:19:48.442Z,22.45
2018-08-24T01:22:19.198Z,22.28
2018-08-24T01:24:49.046Z,22.16
2018-08-24T01:27:18.962Z,22.22
2018-08-24T01:29:49.311Z,22.23
2018-08-24T01:32:20.840Z,22.21
2018-08-24T01:34:50.473Z,22.18
2018-08-24T01:37:20.525Z,22.27
2018-08-24T01:39:50.219Z,22.25
2018-08-24T01:42:19.881Z,22.28
2018-08-24T01:44:50.419Z,22.19
2018-08-24T01:47:21.032Z,22.12
2018-08-24T01:49:50.855Z,22.22
2018-08-24T01:52:20.735Z,22.12
2018-08-24T01:54:50.143Z,21.98
2018-08-24T01:57:20.455Z,22.21
2018-08-24T01:59:50.476Z,22.34
2018-08-24T02:02:20.535Z,22.34
2018-08-24T02:04:51.612Z,22.35
2018-08-24T02:07:22.154Z,22.40
2018-08-24T02:09:52.238Z,22.52
2018-08-24T02:12:29.152Z,22.57
2018-08-24T02:14:58.900Z,22.63
2018-08-24T02:17:34.316Z,22.53
2018-08-24T02:20:10.370Z,22.75
2018-08-24T02:22:39.969Z,22.69
2018-08-24T02:25:11.958Z,22.65
2018-08-24T02:27:42.434Z,22.57
2018-08-24T02:30:12.530Z,22.69
2018-08-24T02:32:42.545Z,22.70
2018-08-24T02:35:12.285Z,22.76
2018-08-24T02:37:41.916Z,22.82
2018-08-24T02:40:11.300Z,22.89
2018-08-24T02:42:40.720Z,22.91
2018-08-24T02:45:11.003Z,22.88
2018-08-24T02:47:40.665Z,22.79
2018-08-24T02:50:10.294Z,22.73
2018-08-24T02:52:39.694Z,22.72
2018-08-24T02:55:09.086Z,22.81
2018-08-24T02:57:39.062Z,22.90
2018-08-24T03:00:08.750Z,22.83
2018-08-24T03:02:38.620Z,22.90
2018-08-24T03:05:09.305Z,22.71
2018-08-24T03:07:38.709Z,22.76
2018-08-24T03:10:08.118Z,22.72
2018-08-24T03:12:37.859Z,22.70
2018-08-24T03:15:08.267Z,22.52
2018-08-24T03:17:43.097Z,22.36
2018-08-24T03:20:13.021Z,22.33
2018-08-24T03:22:42.384Z,22.22
2018-08-24T03:25:12.551Z,22.13
2018-08-24T03:27:41.922Z,22.08
2018-08-24T03:30:26.779Z,22.10
2018-08-24T03:32:57.558Z,22.12
2018-08-24T03:35:28.553Z,22.09
2018-08-24T03:37:58.870Z,21.98
2018-08-24T03:40:28.501Z,21.94
2018-08-24T03:42:59.217Z,21.99
2018-08-24T03:45:28.625Z,21.92
2018-08-24T03:47:59.806Z,21.83
2018-08-24T03:50:30.297Z,21.71
2018-08-24T03:52:59.996Z,21.57
2018-08-24T03:55:33.495Z,21.61
2018-08-24T03:58:03.604Z,21.56
2018-08-24T04:00:33.782Z,21.45
2018-08-24T04:03:03.258Z,21.40
2018-08-24T04:05:33.933Z,21.30
2018-08-24T04:08:03.327Z,21.30
2018-08-24T04:10:34.189Z,21.30
2018-08-24T04:13:04.157Z,21.30
2018-08-24T04:15:33.838Z,21.34
2018-08-24T04:18:03.287Z,21.37
2018-08-24T04:20:33.170Z,21.33
2018-08-24T04:23:02.554Z,21.38
2018-08-24T04:25:32.193Z,21.35
2018-08-24T04:28:01.620Z,21.43
2018-08-24T04:30:32.119Z,21.41
2018-08-24T04:33:01.994Z,21.39
2018-08-24T04:35:31.470Z,21.51
2018-08-24T04:38:01.399Z,21.64
2018-08-24T04:40:33.536Z,21.67
2018-08-24T04:43:04.812Z,21.76
2018-08-24T04:45:48.515Z,21.74
2018-08-24T04:48:18.944Z,21.78
2018-08-24T04:50:53.162Z,21.82
2018-08-24T04:53:24.212Z,21.89
2018-08-24T04:55:56.338Z,21.80
2018-08-24T04:58:28.614Z,22.01
2018-08-24T05:01:00.346Z,22.03
2018-08-24T05:03:32.724Z,21.85
2018-08-24T05:06:03.300Z,22.09
2018-08-24T05:08:33.902Z,22.17
2018-08-24T05:11:03.819Z,22.11
2018-08-24T05:13:35.748Z,21.96
2018-08-24T05:16:09.028Z,22.33
2018-08-24T05:18:38.653Z,22.54
2018-08-24T05:21:08.569Z,22.67
2018-08-24T05:23:38.173Z,22.82
2018-08-24T05:26:07.807Z,22.93
2018-08-24T05:28:39.537Z,22.94
2018-08-24T05:31:13.991Z,22.79
2018-08-24T05:33:46.287Z,22.74
2018-08-24T05:36:16.764Z,22.93
2018-08-24T05:38:51.323Z,22.91
2018-08-24T05:41:23.371Z,23.08
2018-08-24T05:43:52.980Z,23.17
2018-08-24T05:46:26.162Z,23.44
2018-08-24T05:48:57.503Z,23.54
2018-08-24T05:51:29.710Z,23.65
2018-08-24T05:53:59.507Z,23.67
2018-08-24T05:56:29.438Z,23.86
2018-08-24T05:59:00.418Z,23.67
2018-08-24T06:01:35.883Z,23.80
2018-08-24T06:04:08.415Z,23.76
2018-08-24T06:06:38.065Z,23.73
2018-08-24T06:09:14.816Z,23.81
2018-08-24T06:11:46.215Z,23.89
2018-08-24T06:14:17.629Z,24.03
2018-08-24T06:16:57.589Z,24.21
2018-08-24T06:19:47.922Z,24.17
2018-08-24T06:22:21.502Z,24.12
2018-08-24T06:24:57.738Z,24.03
2018-08-24T06:27:34.019Z,23.96
2018-08-24T06:30:10.211Z,24.09
2018-08-24T06:32:45.121Z,24.28
2018-08-24T06:35:17.841Z,24.15
2018-08-24T06:37:51.469Z,24.32
2018-08-24T06:40:23.499Z,24.47
2018-08-24T06:45:22.065Z,24.81
2018-08-24T06:47:52.130Z,24.81
2018-08-24T06:50:26.864Z,24.82
2018-08-24T06:53:03.054Z,24.90
2018-08-24T06:55:32.626Z,24.70
2018-08-24T06:58:03.288Z,24.61
2018-08-24T07:00:36.571Z,24.66
2018-08-24T07:03:06.185Z,24.59
2018-08-24T07:05:36.882Z,24.51
2018-08-24T07:08:06.760Z,24.36
2018-08-24T07:10:38.491Z,24.27
2018-08-24T07:13:09.354Z,24.07
2018-08-24T07:15:38.794Z,24.03
2018-08-24T07:18:11.974Z,24.07
2018-08-24T07:20:45.645Z,24.06
2018-08-24T07:23:19.299Z,23.76
2018-08-24T07:25:50.165Z,23.69
2018-08-24T07:28:21.988Z,23.72
2018-08-24T07:30:51.777Z,23.80
2018-08-24T07:33:23.532Z,23.79
2018-08-24T07:35:53.145Z,23.70
2018-08-24T07:38:24.148Z,23.81
2018-08-24T07:40:54.641Z,23.86
2018-08-24T07:43:24.924Z,24.05
2018-08-24T07:45:54.686Z,24.07
2018-08-24T07:48:26.265Z,24.19
2018-08-24T07:50:58.955Z,24.38
2018-08-24T07:53:29.264Z,24.69
2018-08-24T07:56:00.747Z,24.62
2018-08-24T07:58:33.345Z,24.88
2018-08-24T08:01:05.790Z,24.87
2018-08-24T08:03:39.205Z,24.96
2018-08-24T08:06:09.059Z,25.08
2018-08-24T08:08:44.248Z,25.21
2018-08-24T08:11:24.107Z,25.03
2018-08-24T08:13:54.455Z,25.03
2018-08-24T08:16:26.373Z,24.96
2018-08-24T08:18:56.359Z,24.97
2018-08-24T08:21:26.610Z,24.91
2018-08-24T08:23:58.296Z,24.91
2018-08-24T08:26:28.638Z,24.85
2018-08-24T08:28:58.767Z,24.91
2018-08-24T08:31:28.715Z,24.74
2018-08-24T08:33:58.773Z,24.75
2018-08-24T08:36:33.577Z,24.98
2018-08-24T08:39:07.437Z,25.32
2018-08-24T08:41:37.166Z,25.34
2018-08-24T08:44:06.864Z,25.20
2018-08-24T08:46:36.722Z,25.26
2018-08-24T08:49:11.632Z,25.15
2018-08-24T08:51:41.524Z,25.15
2018-08-24T08:54:13.118Z,25.39
2018-08-24T08:56:42.926Z,25.35
2018-08-24T08:59:15.166Z,25.35
2018-08-24T09:01:50.350Z,25.50
2018-08-24T09:04:20.235Z,25.77
2018-08-24T09:06:49.840Z,25.82
2018-08-24T09:09:19.546Z,25.80
2018-08-24T09:11:52.581Z,25.64
2018-08-24T09:14:24.172Z,25.58
2018-08-24T09:16:53.575Z,25.27
2018-08-24T09:19:32.621Z,25.23
2018-08-24T09:22:07.799Z,25.06
2018-08-24T09:24:48.131Z,24.96
2018-08-24T09:27:30.908Z,25.29
2018-08-24T09:30:03.152Z,25.47
2018-08-24T09:32:35.029Z,25.60
2018-08-24T09:35:05.017Z,25.83
2018-08-24T09:37:39.274Z,26.22
2018-08-24T09:40:10.126Z,26.41
2018-08-24T09:42:40.472Z,26.67
2018-08-24T09:45:10.034Z,26.72
2018-08-24T09:47:44.437Z,26.74
2018-08-24T09:50:21.570Z,26.75
2018-08-24T09:52:56.248Z,26.82
2018-08-24T09:55:31.494Z,26.46
2018-08-24T09:58:04.376Z,26.41
2018-08-24T10:02:46.425Z,26.37
2018-08-24T10:08:17.952Z,26.09
2018-08-24T10:10:47.746Z,26.13
2018-08-24T10:13:18.259Z,26.18
2018-08-24T10:15:48.232Z,25.93
2018-08-24T10:18:18.765Z,25.98
2018-08-24T10:20:48.739Z,26.30
2018-08-24T10:23:18.270Z,26.19
2018-08-24T10:25:47.794Z,26.11
2018-08-24T10:28:19.240Z,25.85
2018-08-24T10:30:49.006Z,25.78
2018-08-24T10:33:19.269Z,25.69
2018-08-24T10:35:49.065Z,25.67
2018-08-24T10:38:18.756Z,25.71
2018-08-24T10:40:48.852Z,25.56
2018-08-24T10:43:18.365Z,25.57
2018-08-24T10:45:48.386Z,25.36
2018-08-24T10:48:18.280Z,25.29
2018-08-24T10:50:48.053Z,25.28
2018-08-24T10:53:17.513Z,25.45
2018-08-24T10:55:47.312Z,25.43
2018-08-24T10:58:16.919Z,25.51
2018-08-24T11:00:46.683Z,25.28
2018-08-24T11:03:17.082Z,25.19
2018-08-24T11:05:47.383Z,25.20
2018-08-24T11:08:16.937Z,24.98
2018-08-24T11:10:46.483Z,24.87
2018-08-24T11:13:16.220Z,24.72
2018-08-24T11:15:50.021Z,24.45
2018-08-24T11:18:21.630Z,24.34
2018-08-24T11:20:52.321Z,24.23
2018-08-24T11:23:22.959Z,24.07
2018-08-24T11:25:52.495Z,23.86
2018-08-24T11:28:22.528Z,23.53
2018-08-24T11:30:52.352Z,23.20
2018-08-24T11:33:23.069Z,23.03
2018-08-24T11:35:53.988Z,22.59
2018-08-24T11:38:24.140Z,22.42
2018-08-24T11:40:54.312Z,22.20
2018-08-24T11:43:24.659Z,21.89
2018-08-24T11:45:54.202Z,21.56
2018-08-24T11:48:23.757Z,21.31
2018-08-24T11:50:54.303Z,21.01
2018-08-24T11:53:25.185Z,20.95
2018-08-24T11:55:54.958Z,20.92
2018-08-24T11:58:25.877Z,20.81
2018-08-24T12:00:56.023Z,20.71
2018-08-24T12:03:26.242Z,20.82
2018-08-24T12:05:57.354Z,20.90
2018-08-24T12:08:30.031Z,20.97
2018-08-24T12:11:01.574Z,21.12
2018-08-24T12:13:31.796Z,21.17
2018-08-24T12:16:01.279Z,21.27
2018-08-24T12:18:30.967Z,21.31
2018-08-24T12:21:00.964Z,21.18
2018-08-24T12:23:30.991Z,21.07
2018-08-24T12:26:00.692Z,20.89
2018-08-24T12:28:30.736Z,20.92
2018-08-24T12:31:01.621Z,20.85
2018-08-24T12:33:31.392Z,20.76
2018-08-24T12:36:01.106Z,20.67
2018-08-24T12:38:30.508Z,20.71
2018-08-24T12:41:00.914Z,20.66
2018-08-24T12:43:31.456Z,20.54
2018-08-24T12:46:00.864Z,20.50
2018-08-24T12:48:31.603Z,20.48
2018-08-24T12:51:02.025Z,20.54
2018-08-24T12:53:33.400Z,20.58
2018-08-24T12:56:03.059Z,20.74
2018-08-24T12:58:33.400Z,21.07
2018-08-24T13:01:03.108Z,21.28
2018-08-24T13:03:32.633Z,21.29
2018-08-24T13:06:02.143Z,21.32
2018-08-24T13:08:31.823Z,21.08
2018-08-24T13:11:03.047Z,21.19
2018-08-24T13:13:33.152Z,21.28
2018-08-24T13:16:03.455Z,21.37
2018-08-24T13:18:33.288Z,21.49
2018-08-24T13:21:03.217Z,21.78
2018-08-24T13:23:32.790Z,21.59
2018-08-24T13:26:03.376Z,21.92
2018-08-24T13:28:33.620Z,22.08
2018-08-24T13:31:05.821Z,22.23
2018-08-24T13:33:35.626Z,22.42
2018-08-24T13:36:05.686Z,22.22
2018-08-24T13:38:35.808Z,22.26
2018-08-24T13:41:06.010Z,22.34
2018-08-24T13:43:37.925Z,22.56
2018-08-24T13:46:09.068Z,22.74
2018-08-24T13:48:40.483Z,22.83
2018-08-24T13:51:11.252Z,22.78
2018-08-24T13:53:41.154Z,22.92
2018-08-24T13:56:14.643Z,23.38
2018-08-24T13:58:45.062Z,23.43
2018-08-24T14:01:15.869Z,23.04
2018-08-24T14:03:46.378Z,23.03
2018-08-24T14:06:16.603Z,23.39
2018-08-24T14:08:46.180Z,23.50
2018-08-24T14:11:15.833Z,23.28
2018-08-24T14:13:45.730Z,23.28
2018-08-24T14:16:15.493Z,23.14
2018-08-24T14:18:45.686Z,23.44
2018-08-24T14:21:17.011Z,23.43
2018-08-24T14:23:48.188Z,23.05
2018-08-24T14:26:21.350Z,23.27
2018-08-24T14:28:50.957Z,23.36
2018-08-24T14:31:20.751Z,23.27
2018-08-24T14:33:51.028Z,23.10
2018-08-24T14:36:21.769Z,23.18
2018-08-24T14:38:52.193Z,23.19
2018-08-24T14:41:22.466Z,23.28
2018-08-24T14:43:52.884Z,23.36
2018-08-24T14:46:24.809Z,23.55
2018-08-24T14:48:54.746Z,23.84
2018-08-24T14:51:24.327Z,23.94
2018-08-24T14:53:54.986Z,23.94
2018-08-24T14:56:25.620Z,24.19
2018-08-24T14:58:56.440Z,24.29
2018-08-24T15:01:26.248Z,24.33
2018-08-24T15:03:56.241Z,24.43
2018-08-24T15:06:29.320Z,24.28
2018-08-24T15:08:59.869Z,24.44
2018-08-24T15:11:31.263Z,24.77
2018-08-24T15:14:01.310Z,24.82
2018-08-24T15:16:31.227Z,24.70
2018-08-24T15:19:02.420Z,24.78
2018-08-24T15:21:33.091Z,24.55
2018-08-24T15:24:03.894Z,24.40
2018-08-24T15:26:33.720Z,24.41
2018-08-24T15:29:03.634Z,24.08
2018-08-24T15:31:33.842Z,23.75
2018-08-24T15:34:03.585Z,23.18
2018-08-24T15:36:33.369Z,22.53
2018-08-24T15:39:04.898Z,21.67
2018-08-24T15:41:34.458Z,21.06
2018-08-24T15:44:03.911Z,20.89
2018-08-24T15:46:33.454Z,20.55
2018-08-24T15:49:04.444Z,20.04
2018-08-24T15:51:33.997Z,19.22
2018-08-24T15:54:04.260Z,18.90
2018-08-24T15:56:34.193Z,18.74
2018-08-24T15:59:04.226Z,18.58
2018-08-24T16:01:33.755Z,18.36
2018-08-24T16:04:03.474Z,18.32
2018-08-24T16:06:33.039Z,18.44
2018-08-24T16:09:02.908Z,18.49
2018-08-24T16:11:32.703Z,18.62
2018-08-24T16:14:02.253Z,18.70
2018-08-24T16:16:31.705Z,18.79
2018-08-24T16:19:01.126Z,18.83
2018-08-24T16:21:30.956Z,18.83
2018-08-24T16:24:00.805Z,18.88
2018-08-24T16:26:30.379Z,18.97
2018-08-24T16:28:59.804Z,19.09
2018-08-24T16:31:29.634Z,19.17
2018-08-24T16:33:59.373Z,19.25
2018-08-24T16:36:28.837Z,19.35
2018-08-24T16:38:59.236Z,19.22
2018-08-24T16:41:28.736Z,19.50
2018-08-24T16:43:58.521Z,19.60
2018-08-24T16:46:28.366Z,19.72
2018-08-24T16:48:58.711Z,19.60
2018-08-24T16:51:28.184Z,19.85
2018-08-24T16:53:58.445Z,19.91
2018-08-24T16:56:28.143Z,19.89
2018-08-24T16:58:57.536Z,19.87
2018-08-24T17:01:27.555Z,19.89
2018-08-24T17:03:57.297Z,19.92
2018-08-24T17:06:27.586Z,19.93
2018-08-24T17:08:57.616Z,19.96
2018-08-24T17:11:27.573Z,19.96
2018-08-24T17:13:57.345Z,20.06
2018-08-24T17:16:27.454Z,19.99
2018-08-24T17:18:57.826Z,19.98
2018-08-24T17:21:28.990Z,20.00
2018-08-24T17:23:59.400Z,20.05
2018-08-24T17:26:29.667Z,20.05
2018-08-24T17:29:00.648Z,20.10
2018-08-24T17:31:30.662Z,19.98
2018-08-24T17:34:01.181Z,19.98
2018-08-24T17:36:31.649Z,20.03
2018-08-24T17:39:02.788Z,20.11
2018-08-24T17:41:33.349Z,20.09
2018-08-24T17:44:03.587Z,20.11
2018-08-24T17:46:34.749Z,20.06
2018-08-24T17:49:06.360Z,19.97
2018-08-24T17:51:36.233Z,19.93
2018-08-24T17:54:06.908Z,19.97
2018-08-24T17:56:37.559Z,19.85
2018-08-24T17:59:09.507Z,19.82
2018-08-24T18:01:40.406Z,19.81
2018-08-24T18:04:10.907Z,19.74
2018-08-24T18:06:40.669Z,19.70
2018-08-24T18:09:12.128Z,19.64
2018-08-24T18:11:42.322Z,19.64
2018-08-24T18:14:12.591Z,19.74
2018-08-24T18:16:42.918Z,19.77
2018-08-24T18:19:14.360Z,19.69
2018-08-24T18:21:43.834Z,19.64
2018-08-24T18:24:13.914Z,19.66
2018-08-24T18:26:44.401Z,19.48
2018-08-24T18:29:14.930Z,19.59
2018-08-24T18:31:45.736Z,19.54
2018-08-24T18:34:16.163Z,19.60
2018-08-24T18:36:45.644Z,19.54
2018-08-24T18:39:16.394Z,19.55
2018-08-24T18:41:46.029Z,19.52
2018-08-24T18:44:16.258Z,19.58
2018-08-24T18:46:46.232Z,19.55
2018-08-24T18:49:15.747Z,19.55
2018-08-24T18:51:45.900Z,19.52
2018-08-24T18:54:15.828Z,19.54
2018-08-24T18:56:45.725Z,19.50
2018-08-24T18:59:17.539Z,19.45
2018-08-24T19:01:49.172Z,19.35
2018-08-24T19:04:20.755Z,19.33
2018-08-24T19:06:50.738Z,19.35
2018-08-24T19:09:20.791Z,19.38
2018-08-24T19:11:55.727Z,19.29
2018-08-24T19:14:27.951Z,19.27
2018-08-24T19:16:57.808Z,19.29
2018-08-24T19:19:34.219Z,19.21
2018-08-24T19:22:05.882Z,19.26
2018-08-24T19:24:35.629Z,19.23
2018-08-24T19:27:05.461Z,19.16
2018-08-24T19:29:41.496Z,19.13
2018-08-24T19:32:10.982Z,19.09
2018-08-24T19:34:40.567Z,19.08
2018-08-24T19:37:10.510Z,19.14
2018-08-24T19:39:40.458Z,19.07
2018-08-24T19:42:14.886Z,19.02
2018-08-24T19:44:45.048Z,19.04
2018-08-24T19:47:19.378Z,19.09
2018-08-24T19:49:49.190Z,19.10
2018-08-24T19:52:19.034Z,19.03
2018-08-24T19:54:48.972Z,19.01
2018-08-24T19:57:24.051Z,18.97
2018-08-24T19:59:55.384Z,19.01
2018-08-24T20:02:28.180Z,18.97
2018-08-24T20:04:58.314Z,18.89
2018-08-24T20:07:35.707Z,18.93
2018-08-24T20:10:10.785Z,18.94
2018-08-24T20:12:40.390Z,18.89
2018-08-24T20:15:15.697Z,18.84
2018-08-24T20:17:45.278Z,18.94
2018-08-24T20:20:15.535Z,18.99
2018-08-24T20:22:45.354Z,18.94
2018-08-24T20:25:17.756Z,18.86
2018-08-24T20:27:50.407Z,18.75
2018-08-24T20:30:20.435Z,18.80
2018-08-24T20:32:51.398Z,18.73
2018-08-24T20:35:21.844Z,18.67
2018-08-24T20:37:51.719Z,18.69
2018-08-24T20:40:21.887Z,18.79
2018-08-24T20:42:52.074Z,18.72
2018-08-24T20:45:22.438Z,18.66
2018-08-24T20:47:52.215Z,18.40
2018-08-24T20:50:22.398Z,18.56
2018-08-24T20:52:53.274Z,18.62
2018-08-24T20:55:23.310Z,18.66
2018-08-24T20:57:53.824Z,18.64
2018-08-24T21:00:25.978Z,18.59
2018-08-24T21:02:58.308Z,18.48
2018-08-24T21:05:28.986Z,18.69
2018-08-24T21:07:58.414Z,18.73
2018-08-24T21:10:29.996Z,18.62
2018-08-24T21:12:59.730Z,18.63
2018-08-24T21:15:30.043Z,18.67
2018-08-24T21:18:00.324Z,18.67
2018-08-24T21:20:30.058Z,18.63
2018-08-24T21:22:59.936Z,18.53
2018-08-24T21:25:30.306Z,18.43
2018-08-24T21:28:00.612Z,18.46
2018-08-24T21:30:30.901Z,18.50
2018-08-24T21:33:01.491Z,18.57
2018-08-24T21:35:32.026Z,18.53
2018-08-24T21:38:02.073Z,18.55
2018-08-24T21:40:31.902Z,18.61
2018-08-24T21:43:03.468Z,18.56
2018-08-24T21:45:33.945Z,18.56
2018-08-24T21:48:03.650Z,18.61
2018-08-24T21:50:33.149Z,18.61
2018-08-24T21:53:14.345Z,18.54
2018-08-24T21:55:44.219Z,18.48
2018-08-24T21:58:14.213Z,18.52
2018-08-24T22:00:44.783Z,18.55
2018-08-24T22:03:17.184Z,18.62
2018-08-24T22:05:47.937Z,18.61
2018-08-24T22:08:18.639Z,18.59
2018-08-24T22:10:49.402Z,18.61
2018-08-24T22:13:20.653Z,18.62
2018-08-24T22:15:50.647Z,18.57
2018-08-24T22:18:21.132Z,18.57
2018-08-24T22:20:50.877Z,18.38
2018-08-24T22:23:20.897Z,18.44
2018-08-24T22:25:51.826Z,18.47
2018-08-24T22:28:22.476Z,18.47
2018-08-24T22:30:53.361Z,18.34
2018-08-24T22:33:23.815Z,18.47
2018-08-24T22:35:54.116Z,18.47
2018-08-24T22:38:25.580Z,18.50
2018-08-24T22:40:56.249Z,18.58
2018-08-24T22:43:31.539Z,18.48
2018-08-24T22:46:02.888Z,18.42
2018-08-24T22:48:32.942Z,18.37
2018-08-24T22:51:02.722Z,18.38
2018-08-24T22:53:32.462Z,18.40
2018-08-24T22:56:02.721Z,18.45
2018-08-24T22:58:33.084Z,18.48
2018-08-24T23:01:02.895Z,18.51
2018-08-24T23:03:32.783Z,18.45
2018-08-24T23:06:02.545Z,18.43
2018-08-24T23:08:32.833Z,18.50
2018-08-24T23:11:03.221Z,18.43
2018-08-24T23:13:33.615Z,18.45
2018-08-24T23:16:04.300Z,18.42
2018-08-24T23:18:34.035Z,18.40
2018-08-24T23:21:03.762Z,18.40
2018-08-24T23:23:34.117Z,18.39
2018-08-24T23:26:04.088Z,18.47
2018-08-24T23:28:34.808Z,18.42
2018-08-24T23:31:04.619Z,18.36
2018-08-24T23:33:35.979Z,18.32
2018-08-24T23:36:06.888Z,18.31
2018-08-24T23:38:36.378Z,18.31
2018-08-24T23:41:06.901Z,18.32
2018-08-24T23:43:37.103Z,18.32
2018-08-24T23:46:07.509Z,18.32
2018-08-24T23:48:37.180Z,18.26
2018-08-24T23:51:07.031Z,18.30
2018-08-24T23:53:36.989Z,18.29
2018-08-24T23:56:06.600Z,18.34
2018-08-24T23:58:36.847Z,18.34
